createdAt,value
2023-01-09T00:02:04.433Z,3.15
2023-01-09T00:04:35.807Z,3.16
2023-01-09T00:07:07.037Z,3.20
2023-01-09T00:09:38.258Z,3.23
2023-01-09T00:12:09.882Z,3.27
2023-01-09T00:14:40.974Z,3.31
2023-01-09T00:17:11.995Z,3.30
2023-01-09T00:19:43.293Z,3.32
2023-01-09T00:22:14.619Z,3.36
2023-01-09T00:24:45.648Z,3.36
2023-01-09T00:27:15.433Z,3.37
2023-01-09T00:29:46.333Z,3.36
2023-01-09T00:32:17.364Z,3.36
2023-01-09T00:34:48.739Z,3.37
2023-01-09T00:37:19.717Z,3.36
2023-01-09T00:39:50.800Z,3.34
2023-01-09T00:42:21.955Z,3.34
2023-01-09T00:44:56.878Z,3.33
2023-01-09T00:47:32.240Z,3.36
2023-01-09T00:50:07.601Z,3.37
2023-01-09T00:52:40.375Z,3.36
2023-01-09T00:55:12.556Z,3.37
2023-01-09T00:57:43.669Z,3.40
2023-01-09T01:00:13.991Z,3.42
2023-01-09T01:02:45.053Z,3.42
2023-01-09T01:05:34.063Z,3.45
2023-01-09T01:08:10.884Z,3.48
2023-01-09T01:10:42.214Z,3.51
2023-01-09T01:13:13.669Z,3.53
2023-01-09T01:15:46.996Z,3.55
2023-01-09T01:18:18.079Z,3.53
2023-01-09T01:20:49.145Z,3.54
2023-01-09T01:23:18.658Z,3.54
2023-01-09T01:25:50.260Z,3.52
2023-01-09T01:28:21.504Z,3.51
2023-01-09T01:30:52.523Z,3.50
2023-01-09T01:33:23.550Z,3.51
2023-01-09T01:36:00.682Z,3.52
2023-01-09T01:38:31.779Z,3.50
2023-01-09T01:41:03.691Z,3.46
2023-01-09T01:43:52.093Z,3.44
2023-01-09T01:46:23.464Z,3.40
2023-01-09T01:48:58.457Z,3.36
2023-01-09T01:51:36.846Z,3.34
2023-01-09T01:54:10.263Z,3.34
2023-01-09T01:56:45.440Z,3.33
2023-01-09T01:59:21.437Z,3.33
2023-01-09T02:01:55.444Z,3.32
2023-01-09T02:04:26.998Z,3.33
2023-01-09T02:07:00.735Z,3.35
2023-01-09T02:09:32.221Z,3.37
2023-01-09T02:12:03.486Z,3.40
2023-01-09T02:14:35.074Z,3.43
2023-01-09T02:17:18.454Z,3.44
2023-01-09T02:20:22.034Z,3.45
2023-01-09T02:23:15.267Z,3.47
2023-01-09T02:26:14.073Z,3.44
2023-01-09T02:29:06.009Z,3.40
2023-01-09T02:31:47.909Z,3.38
2023-01-09T02:34:26.275Z,3.37
2023-01-09T02:37:05.955Z,3.36
2023-01-09T02:39:43.670Z,3.35
2023-01-09T02:42:18.791Z,3.33
2023-01-09T02:44:49.676Z,3.31
2023-01-09T02:47:47.437Z,3.28
2023-01-09T02:50:22.533Z,3.27
2023-01-09T02:53:35.626Z,3.26
2023-01-09T02:56:25.401Z,3.25
2023-01-09T02:59:17.193Z,3.25
2023-01-09T03:02:01.505Z,3.24
2023-01-09T03:04:43.919Z,3.24
2023-01-09T03:07:24.286Z,3.24
2023-01-09T03:10:02.560Z,3.26
2023-01-09T03:12:36.752Z,3.27
2023-01-09T03:15:12.907Z,3.26
2023-01-09T03:17:48.776Z,3.26
2023-01-09T03:20:24.782Z,3.26
2023-01-09T03:23:00.903Z,3.26
2023-01-09T03:25:32.451Z,3.28
2023-01-09T03:28:06.117Z,3.31
2023-01-09T03:30:38.495Z,3.32
2023-01-09T03:33:09.470Z,3.36
2023-01-09T03:35:40.661Z,3.37
2023-01-09T03:38:11.845Z,3.36
2023-01-09T03:40:43.822Z,3.38
2023-01-09T03:43:14.878Z,3.41
2023-01-09T03:45:46.784Z,3.44
2023-01-09T03:48:17.798Z,3.46
2023-01-09T03:50:51.350Z,3.50
2023-01-09T03:53:24.098Z,3.53
2023-01-09T03:55:56.902Z,3.53
2023-01-09T03:58:29.196Z,3.54
2023-01-09T04:01:03.235Z,3.55
2023-01-09T04:03:34.485Z,3.55
2023-01-09T04:06:05.803Z,3.56
2023-01-09T04:08:35.338Z,3.57
2023-01-09T04:11:06.836Z,3.55
2023-01-09T04:13:37.730Z,3.56
2023-01-09T04:16:09.699Z,3.55
2023-01-09T04:18:40.883Z,3.55
2023-01-09T04:21:11.963Z,3.54
2023-01-09T04:23:42.936Z,3.51
2023-01-09T04:26:13.828Z,3.50
2023-01-09T04:28:44.790Z,3.48
2023-01-09T04:31:15.838Z,3.47
2023-01-09T04:33:45.310Z,3.46
2023-01-09T04:36:16.557Z,3.43
2023-01-09T04:38:47.723Z,3.41
2023-01-09T04:41:37.165Z,3.39
2023-01-09T04:44:08.798Z,3.36
2023-01-09T04:46:39.814Z,3.37
2023-01-09T04:49:10.905Z,3.37
2023-01-09T04:51:42.007Z,3.38
2023-01-09T04:54:13.198Z,3.38
2023-01-09T04:56:44.482Z,3.38
2023-01-09T04:59:16.083Z,3.36
2023-01-09T05:01:47.541Z,3.32
2023-01-09T05:04:18.556Z,3.30
2023-01-09T05:06:49.658Z,3.31
2023-01-09T05:09:20.761Z,3.32
2023-01-09T05:11:50.240Z,3.36
2023-01-09T05:14:21.416Z,3.37
2023-01-09T05:16:52.495Z,3.42
2023-01-09T05:19:23.741Z,3.45
2023-01-09T05:21:54.999Z,3.48
2023-01-09T05:24:25.925Z,3.51
2023-01-09T05:26:57.217Z,3.56
2023-01-09T05:29:26.794Z,3.59
2023-01-09T05:31:57.875Z,3.58
2023-01-09T05:34:29.219Z,3.61
2023-01-09T05:37:00.463Z,3.66
2023-01-09T05:39:31.415Z,3.70
2023-01-09T05:42:02.367Z,3.73
2023-01-09T05:44:34.010Z,3.76
2023-01-09T05:47:05.245Z,3.78
2023-01-09T05:49:34.765Z,3.79
2023-01-09T05:52:06.163Z,3.78
2023-01-09T05:54:35.740Z,3.78
2023-01-09T05:57:07.707Z,3.76
2023-01-09T05:59:38.643Z,3.78
2023-01-09T06:02:09.673Z,3.78
2023-01-09T06:04:40.804Z,3.79
2023-01-09T06:07:15.526Z,3.81
2023-01-09T06:09:49.563Z,3.82
2023-01-09T06:12:20.588Z,3.83
2023-01-09T06:14:51.545Z,3.84
2023-01-09T06:17:22.647Z,3.86
2023-01-09T06:19:53.806Z,3.86
2023-01-09T06:22:24.853Z,3.88
2023-01-09T06:24:56.088Z,3.88
2023-01-09T06:27:27.702Z,3.89
2023-01-09T06:29:59.316Z,3.90
2023-01-09T06:32:30.495Z,3.91
2023-01-09T06:35:01.450Z,3.93
2023-01-09T06:37:31.135Z,3.94
2023-01-09T06:40:02.235Z,3.92
2023-01-09T06:42:33.279Z,3.93
2023-01-09T06:45:04.453Z,3.93
2023-01-09T06:47:35.521Z,3.93
2023-01-09T06:50:07.420Z,3.94
2023-01-09T06:52:38.972Z,3.94
2023-01-09T06:55:11.535Z,3.96
2023-01-09T06:57:42.917Z,3.98
2023-01-09T07:00:15.481Z,3.99
2023-01-09T07:02:46.509Z,4.02
2023-01-09T07:05:17.876Z,4.05
2023-01-09T07:07:48.837Z,4.08
2023-01-09T07:10:20.622Z,4.11
2023-01-09T07:12:51.869Z,4.13
2023-01-09T07:15:23.328Z,4.13
2023-01-09T07:17:55.396Z,4.15
2023-01-09T07:20:26.932Z,4.16
2023-01-09T07:22:58.670Z,4.18
2023-01-09T07:25:29.783Z,4.19
2023-01-09T07:27:59.385Z,4.20
2023-01-09T07:30:30.424Z,4.19
2023-01-09T07:33:00.997Z,4.20
2023-01-09T07:35:33.313Z,4.21
2023-01-09T07:38:02.902Z,4.24
2023-01-09T07:40:34.544Z,4.24
2023-01-09T07:43:05.608Z,4.26
2023-01-09T07:45:36.725Z,4.26
2023-01-09T07:48:08.815Z,4.26
2023-01-09T07:50:40.038Z,4.26
2023-01-09T07:53:10.879Z,4.29
2023-01-09T07:55:43.675Z,4.31
2023-01-09T07:58:14.626Z,4.33
2023-01-09T08:00:44.161Z,4.36
2023-01-09T08:03:15.355Z,4.35
2023-01-09T08:05:46.814Z,4.36
2023-01-09T08:08:18.219Z,4.36
2023-01-09T08:10:49.299Z,4.34
2023-01-09T08:13:20.600Z,4.34
2023-01-09T08:15:51.534Z,4.33
2023-01-09T08:18:22.745Z,4.34
2023-01-09T08:20:53.625Z,4.33
2023-01-09T08:23:24.661Z,4.31
2023-01-09T08:25:54.896Z,4.28
2023-01-09T08:28:24.396Z,4.22
2023-01-09T08:30:56.112Z,4.17
2023-01-09T08:33:27.424Z,4.14
2023-01-09T08:35:58.425Z,4.12
2023-01-09T08:38:29.391Z,4.10
2023-01-09T08:41:20.654Z,4.10
2023-01-09T08:44:09.201Z,4.08
2023-01-09T08:46:57.918Z,4.09
2023-01-09T08:49:28.947Z,4.09
2023-01-09T08:51:58.527Z,4.09
2023-01-09T08:54:31.255Z,4.09
2023-01-09T08:57:02.424Z,4.10
2023-01-09T08:59:31.918Z,4.12
2023-01-09T09:02:03.042Z,4.11
2023-01-09T09:04:34.373Z,4.11
2023-01-09T09:07:05.475Z,4.10
2023-01-09T09:09:34.964Z,4.08
2023-01-09T09:12:06.422Z,4.07
2023-01-09T09:14:55.231Z,4.06
2023-01-09T09:17:26.929Z,4.06
2023-01-09T09:19:57.797Z,4.07
2023-01-09T09:22:29.301Z,4.08
2023-01-09T09:25:01.012Z,4.12
2023-01-09T09:27:32.066Z,4.15
2023-01-09T09:30:03.070Z,4.17
2023-01-09T09:32:35.177Z,4.18
2023-01-09T09:35:06.804Z,4.17
2023-01-09T09:37:38.857Z,4.17
2023-01-09T09:40:19.402Z,4.20
2023-01-09T09:43:31.194Z,4.26
2023-01-09T09:46:13.813Z,4.30
2023-01-09T09:48:51.919Z,4.37
2023-01-09T09:51:31.222Z,4.42
2023-01-09T09:54:05.327Z,4.44
2023-01-09T09:56:42.815Z,4.47
2023-01-09T09:59:19.775Z,4.47
2023-01-09T10:01:56.468Z,4.49
2023-01-09T10:04:32.212Z,4.52
2023-01-09T10:07:09.389Z,4.55
2023-01-09T10:09:49.503Z,4.57
2023-01-09T10:12:30.221Z,4.58
2023-01-09T10:15:03.873Z,4.57
2023-01-09T10:17:48.741Z,4.57
2023-01-09T10:20:45.902Z,4.55
2023-01-09T10:23:37.693Z,4.56
2023-01-09T10:26:18.011Z,4.56
2023-01-09T10:29:14.616Z,4.57
2023-01-09T10:31:55.996Z,4.56
2023-01-09T10:34:40.408Z,4.54
2023-01-09T10:37:15.292Z,4.49
2023-01-09T10:39:52.431Z,4.45
2023-01-09T10:42:24.459Z,4.46
2023-01-09T10:45:00.891Z,4.45
2023-01-09T10:47:35.388Z,4.45
2023-01-09T10:50:19.904Z,4.46
2023-01-09T10:52:53.540Z,4.49
2023-01-09T10:55:34.654Z,4.51
2023-01-09T10:58:14.231Z,4.52
2023-01-09T11:00:46.034Z,4.50
2023-01-09T11:03:18.882Z,4.51
2023-01-09T11:05:54.139Z,4.52
2023-01-09T11:08:32.730Z,4.50
2023-01-09T11:11:04.438Z,4.49
2023-01-09T11:13:36.838Z,4.50
2023-01-09T11:16:19.210Z,4.51
2023-01-09T11:18:55.584Z,4.52
2023-01-09T11:21:36.099Z,4.54
2023-01-09T11:24:31.713Z,4.57
2023-01-09T11:27:25.687Z,4.59
2023-01-09T11:30:27.084Z,4.62
2023-01-09T11:32:59.380Z,4.63
2023-01-09T11:35:34.728Z,4.63
2023-01-09T11:38:15.591Z,4.64
2023-01-09T11:40:52.740Z,4.65
2023-01-09T11:43:32.872Z,4.63
2023-01-09T11:46:07.161Z,4.61
2023-01-09T11:48:41.866Z,4.61
2023-01-09T11:51:23.187Z,4.64
2023-01-09T11:54:01.457Z,4.67
2023-01-09T11:56:32.878Z,4.70
2023-01-09T11:59:09.750Z,4.75
2023-01-09T12:01:56.907Z,4.78
2023-01-09T12:04:33.945Z,4.82
2023-01-09T12:07:40.787Z,4.83
2023-01-09T12:10:29.591Z,4.85
2023-01-09T12:13:12.635Z,4.86
2023-01-09T12:15:52.208Z,4.89
2023-01-09T12:18:41.665Z,4.90
2023-01-09T12:21:33.696Z,4.96
2023-01-09T12:24:29.415Z,5.01
2023-01-09T12:27:12.498Z,5.03
2023-01-09T12:30:01.247Z,5.02
2023-01-09T12:32:47.453Z,5.02
2023-01-09T12:35:32.831Z,5.00
2023-01-09T12:38:33.392Z,4.99
2023-01-09T12:41:22.983Z,4.96
2023-01-09T12:43:59.109Z,4.96
2023-01-09T12:46:38.509Z,4.93
2023-01-09T12:49:27.133Z,4.92
2023-01-09T12:52:05.152Z,4.90
2023-01-09T12:54:44.119Z,4.92
2023-01-09T12:57:23.070Z,4.91
2023-01-09T12:59:58.440Z,4.90
2023-01-09T13:02:35.411Z,4.88
2023-01-09T13:05:16.996Z,4.88
2023-01-09T13:07:53.937Z,4.88
2023-01-09T13:10:33.374Z,4.87
2023-01-09T13:13:11.446Z,4.85
2023-01-09T13:15:45.405Z,4.83
2023-01-09T13:18:22.073Z,4.84
2023-01-09T13:20:57.370Z,4.83
2023-01-09T13:23:38.045Z,4.85
2023-01-09T13:26:15.273Z,4.86
2023-01-09T13:28:49.950Z,4.87
2023-01-09T13:31:47.461Z,4.87
2023-01-09T13:34:23.172Z,4.86
2023-01-09T13:36:57.222Z,4.88
2023-01-09T13:39:32.475Z,4.91
2023-01-09T13:42:23.513Z,4.94
2023-01-09T13:44:59.253Z,4.96
2023-01-09T13:47:30.927Z,4.96
2023-01-09T13:50:09.163Z,4.94
2023-01-09T13:52:42.303Z,4.91
2023-01-09T13:55:36.009Z,4.90
2023-01-09T13:58:24.274Z,4.89
2023-01-09T14:01:01.791Z,4.88
2023-01-09T14:03:36.083Z,4.86
2023-01-09T14:06:28.316Z,4.84
2023-01-09T14:09:19.893Z,4.82
2023-01-09T14:12:03.600Z,4.79
2023-01-09T14:14:37.497Z,4.76
2023-01-09T14:17:19.710Z,4.76
2023-01-09T14:19:58.630Z,4.79
2023-01-09T14:22:38.056Z,4.83
2023-01-09T14:25:23.734Z,4.87
2023-01-09T14:28:22.536Z,4.90
2023-01-09T14:31:28.702Z,4.92
2023-01-09T14:34:32.502Z,4.94
2023-01-09T14:37:04.503Z,4.95
2023-01-09T14:39:36.836Z,4.95
2023-01-09T14:42:15.898Z,4.93
2023-01-09T14:44:55.409Z,4.90
2023-01-09T14:47:35.934Z,4.90
2023-01-09T14:50:16.289Z,4.90
2023-01-09T14:52:52.811Z,4.88
2023-01-09T14:55:28.732Z,4.89
2023-01-09T14:58:13.351Z,4.89
2023-01-09T15:00:53.789Z,4.92
2023-01-09T15:03:27.314Z,4.93
2023-01-09T15:05:58.509Z,4.92
2023-01-09T15:08:31.021Z,4.92
2023-01-09T15:11:02.385Z,4.91
2023-01-09T15:13:42.632Z,4.89
2023-01-09T15:16:21.181Z,4.88
2023-01-09T15:18:56.455Z,4.89
2023-01-09T15:21:31.005Z,4.90
2023-01-09T15:24:22.096Z,4.90
2023-01-09T15:26:57.269Z,4.91
2023-01-09T15:29:28.990Z,4.91
2023-01-09T15:32:05.848Z,4.93
2023-01-09T15:34:37.637Z,4.94
2023-01-09T15:37:25.112Z,4.93
2023-01-09T15:39:57.482Z,4.94
2023-01-09T15:42:49.767Z,4.94
2023-01-09T15:45:26.681Z,4.94
2023-01-09T15:48:20.812Z,4.93
2023-01-09T15:50:54.347Z,4.92
2023-01-09T15:53:28.361Z,4.91
2023-01-09T15:56:16.370Z,4.91
2023-01-09T15:58:48.490Z,4.90
2023-01-09T16:01:32.107Z,4.87
2023-01-09T16:04:10.611Z,4.85
2023-01-09T16:06:47.440Z,4.83
2023-01-09T16:09:23.826Z,4.80
2023-01-09T16:11:57.634Z,4.74
2023-01-09T16:14:35.517Z,4.70
2023-01-09T16:17:08.877Z,4.68
2023-01-09T16:19:49.463Z,4.65
2023-01-09T16:22:25.745Z,4.62
2023-01-09T16:24:58.612Z,4.54
2023-01-09T16:27:33.286Z,4.49
2023-01-09T16:30:06.098Z,4.47
2023-01-09T16:32:51.390Z,4.46
2023-01-09T16:35:26.226Z,4.44
2023-01-09T16:37:57.204Z,4.43
2023-01-09T16:40:36.056Z,4.43
2023-01-09T16:43:14.708Z,4.45
2023-01-09T16:45:45.987Z,4.48
2023-01-09T16:48:20.690Z,4.50
2023-01-09T16:50:51.986Z,4.52
2023-01-09T16:53:22.832Z,4.53
2023-01-09T16:55:55.818Z,4.51
2023-01-09T16:58:30.177Z,4.51
2023-01-09T17:01:01.753Z,4.51
2023-01-09T17:03:32.951Z,4.53
2023-01-09T17:06:07.269Z,4.53
2023-01-09T17:08:39.401Z,4.54
2023-01-09T17:11:21.048Z,4.55
2023-01-09T17:13:52.232Z,4.55
2023-01-09T17:16:23.256Z,4.56
2023-01-09T17:18:54.498Z,4.57
2023-01-09T17:21:25.583Z,4.58
2023-01-09T17:24:10.701Z,4.56
2023-01-09T17:27:02.500Z,4.55
2023-01-09T17:29:34.464Z,4.51
2023-01-09T17:32:06.067Z,4.48
2023-01-09T17:34:37.275Z,4.48
2023-01-09T17:37:08.336Z,4.48
2023-01-09T17:39:37.942Z,4.49
2023-01-09T17:42:09.240Z,4.46
2023-01-09T17:44:40.508Z,4.44
2023-01-09T17:47:16.503Z,4.40
2023-01-09T17:49:47.764Z,4.34
2023-01-09T17:52:17.733Z,4.29
2023-01-09T17:54:48.720Z,4.21
2023-01-09T17:57:19.887Z,4.13
2023-01-09T17:59:50.909Z,4.08
2023-01-09T18:02:21.961Z,4.07
2023-01-09T18:04:53.407Z,4.08
2023-01-09T18:07:25.013Z,4.11
2023-01-09T18:09:56.156Z,4.12
2023-01-09T18:12:27.481Z,4.13
2023-01-09T18:14:58.804Z,4.12
2023-01-09T18:17:28.417Z,4.08
2023-01-09T18:19:59.350Z,4.04
2023-01-09T18:22:30.587Z,4.04
2023-01-09T18:24:59.979Z,4.05
2023-01-09T18:27:31.360Z,4.04
2023-01-09T18:30:05.298Z,4.03
2023-01-09T18:32:37.002Z,4.04
2023-01-09T18:35:08.989Z,4.04
2023-01-09T18:37:40.172Z,4.02
2023-01-09T18:40:10.771Z,4.02
2023-01-09T18:42:42.085Z,4.02
2023-01-09T18:45:13.961Z,4.05
2023-01-09T18:47:45.042Z,4.05
2023-01-09T18:50:16.073Z,4.06
2023-01-09T18:52:47.701Z,4.09
2023-01-09T18:55:19.185Z,4.11
2023-01-09T18:57:52.412Z,4.12
2023-01-09T19:00:24.141Z,4.13
2023-01-09T19:02:55.209Z,4.15
2023-01-09T19:05:26.691Z,4.18
2023-01-09T19:07:57.777Z,4.21
2023-01-09T19:10:28.952Z,4.23
2023-01-09T19:13:00.479Z,4.25
2023-01-09T19:15:31.364Z,4.25
2023-01-09T19:18:02.441Z,4.23
2023-01-09T19:20:33.681Z,4.21
2023-01-09T19:23:04.556Z,4.21
2023-01-09T19:25:34.247Z,4.21
2023-01-09T19:28:05.385Z,4.19
2023-01-09T19:30:36.986Z,4.20
2023-01-09T19:33:08.418Z,4.21
2023-01-09T19:35:40.116Z,4.19
2023-01-09T19:38:11.092Z,4.16
2023-01-09T19:40:42.356Z,4.13
2023-01-09T19:43:25.831Z,4.12
2023-01-09T19:45:57.807Z,4.10
2023-01-09T19:48:30.516Z,4.10
2023-01-09T19:51:04.273Z,4.10
2023-01-09T19:53:36.612Z,4.10
2023-01-09T19:56:13.419Z,4.08
2023-01-09T19:58:49.361Z,4.09
2023-01-09T20:01:24.687Z,4.08
2023-01-09T20:03:57.619Z,4.08
2023-01-09T20:06:28.689Z,4.08
2023-01-09T20:09:01.297Z,4.07
2023-01-09T20:11:34.952Z,4.08
2023-01-09T20:14:05.932Z,4.06
2023-01-09T20:16:35.783Z,4.06
2023-01-09T20:19:08.699Z,4.03
2023-01-09T20:21:40.124Z,4.02
2023-01-09T20:24:14.614Z,4.01
2023-01-09T20:26:47.110Z,3.98
2023-01-09T20:29:18.175Z,3.94
2023-01-09T20:31:49.592Z,3.88
2023-01-09T20:34:20.699Z,3.82
2023-01-09T20:36:52.106Z,3.75
2023-01-09T20:39:23.203Z,3.71
2023-01-09T20:41:54.625Z,3.69
2023-01-09T20:44:26.097Z,3.68
2023-01-09T20:46:57.146Z,3.69
2023-01-09T20:49:28.719Z,3.70
2023-01-09T20:52:00.051Z,3.70
2023-01-09T20:54:31.215Z,3.70
2023-01-09T20:57:02.475Z,3.72
2023-01-09T20:59:31.912Z,3.73
2023-01-09T21:02:02.945Z,3.72
2023-01-09T21:04:34.069Z,3.71
2023-01-09T21:07:05.442Z,3.72
2023-01-09T21:09:36.819Z,3.73
2023-01-09T21:12:24.787Z,3.73
2023-01-09T21:14:56.111Z,3.73
2023-01-09T21:17:28.301Z,3.74
2023-01-09T21:19:59.198Z,3.75
2023-01-09T21:22:32.908Z,3.76
2023-01-09T21:25:04.822Z,3.76
2023-01-09T21:27:39.605Z,3.73
2023-01-09T21:30:12.374Z,3.65
2023-01-09T21:32:43.570Z,3.62
2023-01-09T21:35:14.852Z,3.61
2023-01-09T21:37:44.397Z,3.62
2023-01-09T21:40:17.330Z,3.61
2023-01-09T21:43:08.211Z,3.59
2023-01-09T21:45:57.596Z,3.57
2023-01-09T21:48:28.764Z,3.49
2023-01-09T21:51:02.669Z,3.43
2023-01-09T21:53:34.015Z,3.39
2023-01-09T21:56:05.071Z,3.40
2023-01-09T21:58:36.448Z,3.37
2023-01-09T22:01:06.227Z,3.36
2023-01-09T22:03:37.345Z,3.33
2023-01-09T22:06:09.412Z,3.29
2023-01-09T22:08:40.333Z,3.25
2023-01-09T22:11:11.412Z,3.22
2023-01-09T22:13:42.478Z,3.23
2023-01-09T22:16:13.930Z,3.25
2023-01-09T22:18:45.185Z,3.29
2023-01-09T22:21:17.606Z,3.34
2023-01-09T22:23:48.861Z,3.39
2023-01-09T22:26:21.118Z,3.40
2023-01-09T22:28:52.259Z,3.42
2023-01-09T22:31:22.524Z,3.44
2023-01-09T22:33:54.838Z,3.45
2023-01-09T22:36:26.848Z,3.48
2023-01-09T22:38:58.796Z,3.51
2023-01-09T22:41:30.885Z,3.53
2023-01-09T22:44:02.125Z,3.56
2023-01-09T22:46:32.079Z,3.57
2023-01-09T22:49:03.207Z,3.54
2023-01-09T22:51:33.757Z,3.52
2023-01-09T22:54:05.190Z,3.51
2023-01-09T22:56:36.271Z,3.54
2023-01-09T22:59:07.507Z,3.56
2023-01-09T23:01:38.703Z,3.55
2023-01-09T23:04:14.965Z,3.56
2023-01-09T23:06:46.175Z,3.58
2023-01-09T23:09:17.349Z,3.59
2023-01-09T23:12:03.940Z,3.61
2023-01-09T23:14:37.619Z,3.60
2023-01-09T23:17:10.857Z,3.61
2023-01-09T23:19:42.465Z,3.61
2023-01-09T23:22:13.921Z,3.60
2023-01-09T23:24:45.160Z,3.59
2023-01-09T23:27:16.078Z,3.59
2023-01-09T23:29:47.279Z,3.57
2023-01-09T23:32:18.543Z,3.56
2023-01-09T23:34:50.480Z,3.56
2023-01-09T23:37:21.956Z,3.55
2023-01-09T23:39:53.032Z,3.54
2023-01-09T23:42:40.269Z,3.52
2023-01-09T23:45:12.221Z,3.48
2023-01-09T23:47:43.267Z,3.45
2023-01-09T23:50:15.240Z,3.43
2023-01-09T23:52:46.519Z,3.42
2023-01-09T23:55:17.711Z,3.40
2023-01-09T23:57:54.390Z,3.37
